Excellence — KTDP — position and weather

sailwx.info

Track history (hours):
 
Tides and Currents Weather Stations Pressure Air Temp Water Temp Dewpoint Dewpoint Depression Visibility Wind Speed Wind Dir Waves Ship Positions

Excellence

Owner: AJVS, INC, Seattle, WA. More information available from US FCC via Universal Licensing System and Coast Guard Vessel Documentation Center.

Last reported at 2016-Sep-29 20:33 UTC. Time now 2016-Oct-01 22:24 UTC.
Position N 43°09' W 124°54'.

Length 112 m; draft 6 m.

Type: Other ship. MMSI: 338162000.

Date/timePositionNaut miles runAvg speedWind from/ knotsBaromVisibWave heightAir tempDewpointWater temp
2016-Sep-29 20:33N 43°09' W 124°54'1 1.0
2016-Sep-29 19:19N 43°09' W 124°56'15 5.4
2016-Sep-29 16:32N 43°21' W 124°44'7 7.0
2016-Sep-29 15:33N 43°28' W 124°42'2 1.6
2016-Sep-29 14:32N 43°29' W 124°40'2 1.7
2016-Sep-29 13:33N 43°29' W 124°42'10 2.0
2016-Sep-29 08:33N 43°39' W 124°41'1 0.7
2016-Sep-29 07:33N 43°39' W 124°40'1 0.1
2016-Sep-29 00:31N 43°38' W 124°40'1 0.3
2016-Sep-28 21:33N 43°39' W 124°39'3 1.5
2016-Sep-28 19:33N 43°42' W 124°40'6 2.0
2016-Sep-28 16:33N 43°36' W 124°39'6 5.7
2016-Sep-28 15:33N 43°30' W 124°41'3 1.1
2016-Sep-28 12:33N 43°33' W 124°42'3 0.6
2016-Sep-28 08:17N 43°31' W 124°41'7 1.5
2016-Sep-28 03:29N 43°38' W 124°39'1 0.7
2016-Sep-28 02:08N 43°37' W 124°40'4 5.9
2016-Sep-28 01:29N 43°33' W 124°39'2 1.0
2016-Sep-27 23:25N 43°31' W 124°40'3 0.7
2016-Sep-27 19:08N 43°34' W 124°40'2 0.4
2016-Sep-27 14:04N 43°36' W 124°39'2 3.9
2016-Sep-27 13:30N 43°34' W 124°38'4 1.4
2016-Sep-27 10:31N 43°38' W 124°40'3 0.3
2016-Sep-27 00:33N 43°42' W 124°40'21 5.0
2016-Sep-26 20:24N 43°24' W 124°24'1210.1
2016-Sep-26 19:15N 43°33' W 124°34'6 1.5
2016-Sep-26 15:12N 43°38' W 124°39'6 3.6
2016-Sep-26 13:24N 43°32' W 124°40'2 0.9
2016-Sep-26 11:33N 43°33' W 124°41'2 0.1
2016-Sep-25 21:33N 43°32' W 124°41'0 0.0
2016-Sep-25 17:08N 43°32' W 124°41'4 5.0
2016-Sep-25 16:21N 43°35' W 124°39'1 0.6
2016-Sep-25 15:30N 43°35' W 124°40'4 3.7
2016-Sep-25 14:33N 43°32' W 124°41'5 2.6
2016-Sep-25 12:33N 43°27' W 124°44'3 2.7
2016-Sep-25 11:33N 43°24' W 124°44'5 5.1
2016-Sep-25 10:33N 43°28' W 124°40'3 2.9
2016-Sep-25 09:33N 43°31' W 124°39'10 4.8
2016-Sep-25 07:33N 43°23' W 124°47'10 3.4
2016-Sep-25 04:33N 43°32' W 124°41'1 0.3
2016-Sep-25 00:28N 43°34' W 124°42'6 2.8
2016-Sep-24 22:30N 43°28' W 124°42'4 3.3
2016-Sep-24 21:21N 43°31' W 124°44'  
Track history (hours):
 
Tides and Currents Weather Stations Pressure Air Temp Water Temp Dewpoint Dewpoint Depression Visibility Wind Speed Wind Dir Waves Ship Positions

Excellence

Owner: AJVS, INC, Seattle, WA. More information available from US FCC via Universal Licensing System and Coast Guard Vessel Documentation Center.

Last reported at 2016-Sep-29 20:33 UTC. Time now 2016-Oct-01 22:24 UTC.
Position N 43°09' W 124°54'.

Length 112 m; draft 6 m.

Type: Other ship. MMSI: 338162000.

Date/timePositionNaut miles runAvg speedWind from/ knotsBaromVisibWave heightAir tempDewpointWater temp
2016-Sep-29 20:33N 43°09' W 124°54'1 1.0
2016-Sep-29 19:19N 43°09' W 124°56'15 5.4
2016-Sep-29 16:32N 43°21' W 124°44'7 7.0
2016-Sep-29 15:33N 43°28' W 124°42'2 1.6
2016-Sep-29 14:32N 43°29' W 124°40'2 1.7
2016-Sep-29 13:33N 43°29' W 124°42'10 2.0
2016-Sep-29 08:33N 43°39' W 124°41'1 0.7
2016-Sep-29 07:33N 43°39' W 124°40'1 0.1
2016-Sep-29 00:31N 43°38' W 124°40'1 0.3
2016-Sep-28 21:33N 43°39' W 124°39'3 1.5
2016-Sep-28 19:33N 43°42' W 124°40'6 2.0
2016-Sep-28 16:33N 43°36' W 124°39'6 5.7
2016-Sep-28 15:33N 43°30' W 124°41'3 1.1
2016-Sep-28 12:33N 43°33' W 124°42'3 0.6
2016-Sep-28 08:17N 43°31' W 124°41'7 1.5
2016-Sep-28 03:29N 43°38' W 124°39'1 0.7
2016-Sep-28 02:08N 43°37' W 124°40'4 5.9
2016-Sep-28 01:29N 43°33' W 124°39'2 1.0
2016-Sep-27 23:25N 43°31' W 124°40'3 0.7
2016-Sep-27 19:08N 43°34' W 124°40'2 0.4
2016-Sep-27 14:04N 43°36' W 124°39'2 3.9
2016-Sep-27 13:30N 43°34' W 124°38'4 1.4
2016-Sep-27 10:31N 43°38' W 124°40'3 0.3
2016-Sep-27 00:33N 43°42' W 124°40'21 5.0
2016-Sep-26 20:24N 43°24' W 124°24'1210.1
2016-Sep-26 19:15N 43°33' W 124°34'6 1.5
2016-Sep-26 15:12N 43°38' W 124°39'6 3.6
2016-Sep-26 13:24N 43°32' W 124°40'2 0.9
2016-Sep-26 11:33N 43°33' W 124°41'2 0.1
2016-Sep-25 21:33N 43°32' W 124°41'0 0.0
2016-Sep-25 17:08N 43°32' W 124°41'4 5.0
2016-Sep-25 16:21N 43°35' W 124°39'1 0.6
2016-Sep-25 15:30N 43°35' W 124°40'4 3.7
2016-Sep-25 14:33N 43°32' W 124°41'5 2.6
2016-Sep-25 12:33N 43°27' W 124°44'3 2.7
2016-Sep-25 11:33N 43°24' W 124°44'5 5.1
2016-Sep-25 10:33N 43°28' W 124°40'3 2.9
2016-Sep-25 09:33N 43°31' W 124°39'10 4.8
2016-Sep-25 07:33N 43°23' W 124°47'10 3.4
2016-Sep-25 04:33N 43°32' W 124°41'1 0.3
2016-Sep-25 00:28N 43°34' W 124°42'6 2.8
2016-Sep-24 22:30N 43°28' W 124°42'4 3.3
2016-Sep-24 21:21N 43°31' W 124°44'  

Dump ship's entire track history